Time;durP1;ratioP1;P1;durP2;ratioP2;P2;SDS_P1;SDS_P2;PMS_P1;PMS_P2;Temp;Humidity;BMP_temperature;BMP_pressure;BME280_temperature;BME280_humidity;BME280_pressure;Samples;Min_cycle;Max_cycle;Signal;HPM_P1;HPM_P2
2021/10/06 00:00:35;;;;;;;10.05;2.88;;;;;;;;;;5023231;28;20044;-55
2021/10/06 00:03:01;;;;;;;6.60;2.60;;;;;;;;;;5018820;28;20047;-54
2021/10/06 00:05:26;;;;;;;8.20;2.70;;;;;;;;;;5010623;28;20026;-56
2021/10/06 00:07:51;;;;;;;6.22;2.63;;;;;;;;;;5007620;28;20148;-54
2021/10/06 00:10:16;;;;;;;10.20;2.70;;;;;;;;;;5013270;28;20033;-54
2021/10/06 00:12:41;;;;;;;9.45;2.65;;;;;;;;;;5018962;28;20044;-55
2021/10/06 00:15:12;;;;;;;9.20;2.60;;;;;;;;;;5018277;28;20462;-55
2021/10/06 00:17:38;;;;;;;11.40;2.70;;;;;;;;;;5018836;28;20018;-56
2021/10/06 00:20:04;;;;;;;7.03;2.60;;;;;;;;;;5006775;28;20037;-54
2021/10/06 00:22:29;;;;;;;12.77;2.80;;;;;;;;;;5015394;28;20033;-55
2021/10/06 00:24:54;;;;;;;6.85;3.17;;;;;;;;;;5011951;28;20529;-54
2021/10/06 00:27:19;;;;;;;10.30;2.58;;;;;;;;;;5006303;28;20696;-55
2021/10/06 00:29:44;;;;;;;5.07;2.53;;;;;;;;;;5012809;28;20877;-55
2021/10/06 00:32:10;;;;;;;7.00;2.60;;;;;;;;;;5015996;28;20037;-55
2021/10/06 00:34:35;;;;;;;7.50;2.67;;;;;;;;;;5009193;28;20036;-55
2021/10/06 00:37:00;;;;;;;6.65;2.60;;;;;;;;;;5019709;28;20057;-55
2021/10/06 00:39:25;;;;;;;8.05;2.78;;;;;;;;;;5019010;28;20029;-55
2021/10/06 00:41:50;;;;;;;8.55;2.80;;;;;;;;;;5015442;28;20046;-55
2021/10/06 00:44:20;;;;;;;9.48;2.40;;;;;;;;;;5016586;28;20022;-55
2021/10/06 00:46:45;;;;;;;7.97;2.67;;;;;;;;;;5014152;28;20389;-54
2021/10/06 00:49:11;;;;;;;5.85;2.50;;;;;;;;;;5011540;28;20122;-55
2021/10/06 00:51:38;;;;;;;7.47;2.70;;;;;;;;;;5008196;28;20030;-54
2021/10/06 00:54:03;;;;;;;7.45;2.75;;;;;;;;;;5015872;28;20038;-55
2021/10/06 00:56:29;;;;;;;11.50;2.53;;;;;;;;;;5010492;28;20042;-56
2021/10/06 00:58:54;;;;;;;5.43;2.20;;;;;;;;;;5017594;28;20549;-55
2021/10/06 01:01:19;;;;;;;7.72;2.65;;;;;;;;;;5026106;28;20038;-55
2021/10/06 01:03:44;;;;;;;11.25;2.60;;;;;;;;;;5007636;28;20038;-56
2021/10/06 01:06:10;;;;;;;17.52;2.70;;;;;;;;;;5013125;28;20049;-55
2021/10/06 01:08:35;;;;;;;7.22;2.90;;;;;;;;;;5006164;28;20022;-55
2021/10/06 01:11:00;;;;;;;7.25;2.30;;;;;;;;;;5009306;28;20061;-54
2021/10/06 01:13:25;;;;;;;7.78;2.30;;;;;;;;;;5011565;28;20034;-55
2021/10/06 01:15:51;;;;;;;8.88;2.40;;;;;;;;;;5008469;28;20128;-54
2021/10/06 01:18:16;;;;;;;7.15;2.05;;;;;;;;;;5015269;28;20174;-56
2021/10/06 01:20:42;;;;;;;12.60;2.65;;;;;;;;;;5012257;28;20037;-55
2021/10/06 01:23:07;;;;;;;6.80;2.10;;;;;;;;;;5006289;28;20066;-55
2021/10/06 01:25:32;;;;;;;8.18;2.50;;;;;;;;;;5010359;28;20804;-54
2021/10/06 01:27:58;;;;;;;7.68;2.35;;;;;;;;;;5023084;28;20558;-55
2021/10/06 01:30:23;;;;;;;9.88;2.30;;;;;;;;;;5016455;28;20038;-55
2021/10/06 01:32:48;;;;;;;10.45;2.38;;;;;;;;;;5011459;28;20030;-54
2021/10/06 01:35:14;;;;;;;6.90;2.10;;;;;;;;;;5012412;28;20030;-57
2021/10/06 01:37:39;;;;;;;7.88;2.20;;;;;;;;;;5012149;28;20103;-55
2021/10/06 01:40:06;;;;;;;6.40;2.22;;;;;;;;;;5014529;28;20428;-55
2021/10/06 01:42:31;;;;;;;7.53;2.38;;;;;;;;;;5009764;28;20504;-55
2021/10/06 01:44:56;;;;;;;6.68;1.95;;;;;;;;;;5015698;28;20092;-55
2021/10/06 01:47:22;;;;;;;5.75;2.40;;;;;;;;;;5013625;28;20139;-54
2021/10/06 01:49:47;;;;;;;7.10;2.60;;;;;;;;;;5009596;28;20057;-54
2021/10/06 01:52:19;;;;;;;7.50;2.45;;;;;;;;;;5021938;28;20519;-55
2021/10/06 01:54:44;;;;;;;11.23;2.80;;;;;;;;;;5013722;28;20033;-55
2021/10/06 01:57:10;;;;;;;10.23;2.45;;;;;;;;;;5019050;28;20118;-55
2021/10/06 01:59:35;;;;;;;8.75;2.38;;;;;;;;;;5032048;28;20026;-54
2021/10/06 02:02:00;;;;;;;6.47;2.35;;;;;;;;;;5012461;28;20044;-54
2021/10/06 02:04:26;;;;;;;8.32;2.20;;;;;;;;;;5016054;28;20013;-54
2021/10/06 02:06:51;;;;;;;9.63;2.92;;;;;;;;;;5021069;28;20037;-55
2021/10/06 02:09:16;;;;;;;11.35;2.50;;;;;;;;;;5009467;28;20044;-54
2021/10/06 02:11:41;;;;;;;11.05;2.50;;;;;;;;;;5019909;28;20102;-55
2021/10/06 02:14:06;;;;;;;5.93;2.25;;;;;;;;;;5019398;28;20022;-55
2021/10/06 02:16:32;;;;;;;6.82;2.35;;;;;;;;;;5016041;28;20094;-54
2021/10/06 02:18:57;;;;;;;6.70;2.67;;;;;;;;;;5018751;28;20082;-55
2021/10/06 02:21:22;;;;;;;8.27;2.30;;;;;;;;;;5012426;28;20177;-54
2021/10/06 02:23:47;;;;;;;8.77;2.80;;;;;;;;;;5014237;28;20333;-53
2021/10/06 02:26:13;;;;;;;8.38;2.90;;;;;;;;;;5013357;28;20179;-55
2021/10/06 02:28:38;;;;;;;12.10;2.70;;;;;;;;;;5013829;28;20075;-54
2021/10/06 02:31:03;;;;;;;6.97;2.60;;;;;;;;;;5017725;28;20095;-53
2021/10/06 02:33:28;;;;;;;9.15;2.90;;;;;;;;;;5012073;28;20025;-55
2021/10/06 02:35:53;;;;;;;11.15;2.88;;;;;;;;;;5012419;28;20045;-55
2021/10/06 02:38:19;;;;;;;5.82;2.63;;;;;;;;;;5014442;28;20021;-55
2021/10/06 02:40:44;;;;;;;11.90;3.40;;;;;;;;;;5012050;28;20030;-54
2021/10/06 02:43:09;;;;;;;12.10;2.83;;;;;;;;;;5020071;28;20145;-54
2021/10/06 02:45:34;;;;;;;12.18;2.60;;;;;;;;;;5016358;28;20049;-54
2021/10/06 02:47:59;;;;;;;8.18;2.40;;;;;;;;;;5015171;28;20029;-55
2021/10/06 02:50:25;;;;;;;8.65;2.88;;;;;;;;;;5014399;28;20045;-55
2021/10/06 02:52:50;;;;;;;10.55;2.75;;;;;;;;;;5023375;28;20442;-55
2021/10/06 02:55:16;;;;;;;7.32;2.30;;;;;;;;;;5024288;28;20032;-54
2021/10/06 02:57:41;;;;;;;7.88;2.42;;;;;;;;;;5010690;28;20132;-55
2021/10/06 03:00:07;;;;;;;9.07;2.75;;;;;;;;;;5016462;28;20018;-58
2021/10/06 03:02:32;;;;;;;8.82;2.65;;;;;;;;;;5008883;28;20021;-54
2021/10/06 03:04:57;;;;;;;9.40;2.60;;;;;;;;;;5014018;28;20429;-54
2021/10/06 03:07:23;;;;;;;11.93;2.75;;;;;;;;;;5010583;28;20041;-57
2021/10/06 03:09:48;;;;;;;7.07;2.65;;;;;;;;;;5017561;28;20037;-55
2021/10/06 03:12:13;;;;;;;10.65;2.58;;;;;;;;;;5014473;28;20307;-55
2021/10/06 03:14:38;;;;;;;13.48;3.10;;;;;;;;;;5035059;28;20017;-54
2021/10/06 03:17:03;;;;;;;9.70;3.03;;;;;;;;;;5018441;28;20053;-54
2021/10/06 03:19:29;;;;;;;7.47;2.53;;;;;;;;;;5011492;28;20029;-54
2021/10/06 03:21:54;;;;;;;9.90;2.95;;;;;;;;;;5011418;28;20103;-53
2021/10/06 03:24:19;;;;;;;9.68;2.75;;;;;;;;;;5013629;28;20057;-55
2021/10/06 03:26:44;;;;;;;9.00;2.67;;;;;;;;;;5018225;28;20065;-54
2021/10/06 03:29:10;;;;;;;10.02;2.70;;;;;;;;;;5013347;28;20041;-54
2021/10/06 03:31:35;;;;;;;10.43;3.13;;;;;;;;;;5013455;28;20045;-55
2021/10/06 03:34:00;;;;;;;9.55;3.05;;;;;;;;;;5014347;28;20038;-54
2021/10/06 03:36:26;;;;;;;11.27;3.17;;;;;;;;;;5015105;28;20503;-55
2021/10/06 03:38:52;;;;;;;8.60;2.78;;;;;;;;;;5008351;28;20030;-55
2021/10/06 03:41:17;;;;;;;13.65;2.90;;;;;;;;;;5011818;28;20540;-54
2021/10/06 03:43:42;;;;;;;8.43;2.58;;;;;;;;;;5020229;28;20040;-55
2021/10/06 03:46:07;;;;;;;7.15;2.80;;;;;;;;;;5015861;28;20525;-54
2021/10/06 03:48:32;;;;;;;11.43;2.90;;;;;;;;;;5010920;28;20390;-55
2021/10/06 03:50:58;;;;;;;9.95;3.42;;;;;;;;;;5009140;28;20123;-55
2021/10/06 03:53:23;;;;;;;8.32;2.53;;;;;;;;;;5015521;28;20129;-55
2021/10/06 03:55:48;;;;;;;7.15;2.80;;;;;;;;;;5013478;28;20096;-54
2021/10/06 03:58:15;;;;;;;8.23;2.70;;;;;;;;;;5015888;28;20071;-54
2021/10/06 04:00:40;;;;;;;11.23;2.65;;;;;;;;;;5020240;28;20052;-56
2021/10/06 04:03:10;;;;;;;10.48;2.70;;;;;;;;;;5014372;28;20021;-55
2021/10/06 04:05:35;;;;;;;14.90;2.88;;;;;;;;;;5022667;28;20586;-55
2021/10/06 04:08:00;;;;;;;9.45;2.60;;;;;;;;;;5014530;28;20029;-55
2021/10/06 04:10:25;;;;;;;13.73;2.67;;;;;;;;;;5017507;28;20053;-56
2021/10/06 04:12:50;;;;;;;12.70;3.58;;;;;;;;;;5013336;28;20044;-54
2021/10/06 04:15:16;;;;;;;9.43;3.25;;;;;;;;;;5010199;28;20025;-55
2021/10/06 04:17:41;;;;;;;12.80;3.22;;;;;;;;;;5016590;28;20035;-55
2021/10/06 04:20:06;;;;;;;11.77;2.90;;;;;;;;;;5007407;28;20033;-53
2021/10/06 04:22:32;;;;;;;12.50;2.80;;;;;;;;;;5021249;28;20718;-54
2021/10/06 04:24:57;;;;;;;7.93;2.80;;;;;;;;;;5018626;28;20152;-55
2021/10/06 04:27:22;;;;;;;10.90;3.20;;;;;;;;;;5020486;28;20029;-54
2021/10/06 04:29:47;;;;;;;9.55;3.13;;;;;;;;;;5018271;28;20033;-55
2021/10/06 04:32:13;;;;;;;15.38;3.40;;;;;;;;;;5019702;28;20101;-55
2021/10/06 04:34:38;;;;;;;14.27;2.95;;;;;;;;;;5016631;28;20079;-53
2021/10/06 04:37:03;;;;;;;9.27;3.03;;;;;;;;;;5015623;28;20092;-55
2021/10/06 04:39:28;;;;;;;11.57;2.88;;;;;;;;;;5014716;28;20017;-53
2021/10/06 04:41:53;;;;;;;8.35;2.75;;;;;;;;;;5008821;28;20051;-55
2021/10/06 04:44:19;;;;;;;17.08;3.15;;;;;;;;;;5017778;28;20029;-54
2021/10/06 04:46:44;;;;;;;8.70;2.97;;;;;;;;;;5018432;28;20534;-54
2021/10/06 04:49:09;;;;;;;13.30;2.72;;;;;;;;;;5012831;28;20384;-54
2021/10/06 04:51:35;;;;;;;8.32;3.55;;;;;;;;;;5011384;28;20107;-54
2021/10/06 04:54:00;;;;;;;9.02;2.97;;;;;;;;;;5011827;28;20099;-55
2021/10/06 04:56:25;;;;;;;9.40;3.30;;;;;;;;;;5014871;28;20408;-55
2021/10/06 04:58:50;;;;;;;8.90;3.28;;;;;;;;;;5016671;28;20608;-55
2021/10/06 05:01:15;;;;;;;10.15;3.05;;;;;;;;;;5016415;28;20042;-54
2021/10/06 05:03:41;;;;;;;13.88;3.13;;;;;;;;;;5014502;28;20053;-55
2021/10/06 05:06:06;;;;;;;12.88;3.05;;;;;;;;;;5015679;28;20045;-55
2021/10/06 05:08:33;;;;;;;17.38;3.45;;;;;;;;;;5020730;28;20109;-55
2021/10/06 05:10:58;;;;;;;8.43;2.95;;;;;;;;;;5012588;28;20042;-52
2021/10/06 05:13:23;;;;;;;10.40;3.35;;;;;;;;;;5012562;28;20375;-54
2021/10/06 05:15:48;;;;;;;12.20;3.50;;;;;;;;;;5021314;28;20087;-55
2021/10/06 05:18:14;;;;;;;11.07;3.40;;;;;;;;;;5012643;28;20029;-55
2021/10/06 05:20:39;;;;;;;12.00;3.03;;;;;;;;;;5011468;28;20041;-55
2021/10/06 05:23:04;;;;;;;7.60;3.15;;;;;;;;;;5013358;28;20065;-53
2021/10/06 05:25:29;;;;;;;16.05;3.20;;;;;;;;;;5011686;28;20380;-54
2021/10/06 05:27:56;;;;;;;9.57;3.25;;;;;;;;;;5018245;28;20129;-54
2021/10/06 05:30:21;;;;;;;8.82;2.85;;;;;;;;;;5013724;28;20088;-53
2021/10/06 05:32:49;;;;;;;9.15;3.20;;;;;;;;;;5018758;28;20025;-54
2021/10/06 05:35:14;;;;;;;11.65;3.22;;;;;;;;;;5022998;28;20088;-55
2021/10/06 05:37:40;;;;;;;11.40;3.05;;;;;;;;;;5012471;28;20029;-55
2021/10/06 05:40:05;;;;;;;8.45;2.95;;;;;;;;;;5017559;28;20104;-54
2021/10/06 05:42:30;;;;;;;8.05;3.40;;;;;;;;;;5010258;28;20500;-54
2021/10/06 05:44:56;;;;;;;11.77;3.15;;;;;;;;;;5010405;28;20048;-54
2021/10/06 05:47:21;;;;;;;9.27;3.30;;;;;;;;;;5014784;28;20554;-55
2021/10/06 05:49:46;;;;;;;9.55;2.63;;;;;;;;;;5019022;28;20061;-54
2021/10/06 05:52:11;;;;;;;9.45;2.90;;;;;;;;;;5020191;28;20037;-54
2021/10/06 05:54:37;;;;;;;8.88;2.92;;;;;;;;;;5020726;28;20018;-53
2021/10/06 05:57:02;;;;;;;14.15;3.28;;;;;;;;;;5036232;28;20446;-54
2021/10/06 05:59:27;;;;;;;11.55;3.00;;;;;;;;;;5014363;28;20523;-54
2021/10/06 06:01:52;;;;;;;9.65;2.88;;;;;;;;;;5016485;28;20064;-53
2021/10/06 06:04:17;;;;;;;6.80;2.53;;;;;;;;;;5012593;28;20117;-55
2021/10/06 06:06:43;;;;;;;10.35;3.03;;;;;;;;;;5020958;28;20480;-55
2021/10/06 06:09:09;;;;;;;10.63;3.65;;;;;;;;;;5017304;28;20017;-55
2021/10/06 06:11:34;;;;;;;8.70;2.60;;;;;;;;;;5013826;28;20055;-55
2021/10/06 06:13:59;;;;;;;8.85;2.50;;;;;;;;;;5024576;28;20375;-55
2021/10/06 06:16:24;;;;;;;7.05;2.58;;;;;;;;;;5018383;28;20092;-54
2021/10/06 06:18:50;;;;;;;10.70;3.00;;;;;;;;;;5014736;28;20128;-56
2021/10/06 06:21:15;;;;;;;10.13;2.65;;;;;;;;;;5021025;28;20069;-54
2021/10/06 06:23:40;;;;;;;6.10;2.47;;;;;;;;;;5016143;28;20029;-56
2021/10/06 06:26:05;;;;;;;6.53;2.60;;;;;;;;;;5019398;28;20045;-52
2021/10/06 06:28:31;;;;;;;7.35;2.38;;;;;;;;;;5018367;28;20036;-55
2021/10/06 06:30:56;;;;;;;9.95;2.67;;;;;;;;;;5011054;28;20072;-55
2021/10/06 06:33:21;;;;;;;4.90;2.45;;;;;;;;;;5013280;28;20025;-55
2021/10/06 06:35:46;;;;;;;9.65;2.92;;;;;;;;;;5016816;28;20038;-55
2021/10/06 06:38:11;;;;;;;7.82;2.90;;;;;;;;;;5016576;28;20033;-52
2021/10/06 06:40:40;;;;;;;11.20;2.63;;;;;;;;;;5020836;28;20038;-54
2021/10/06 06:43:06;;;;;;;8.57;2.38;;;;;;;;;;5015185;28;20064;-54
2021/10/06 06:45:31;;;;;;;7.47;2.30;;;;;;;;;;5019235;28;20451;-54
2021/10/06 06:47:57;;;;;;;5.35;2.05;;;;;;;;;;5016898;28;20037;-55
2021/10/06 06:50:22;;;;;;;8.50;2.20;;;;;;;;;;5020743;28;20041;-55
2021/10/06 06:52:47;;;;;;;9.63;2.35;;;;;;;;;;5023785;28;20037;-55
2021/10/06 06:55:12;;;;;;;7.05;2.20;;;;;;;;;;5020847;28;20017;-55
2021/10/06 06:57:37;;;;;;;7.97;2.35;;;;;;;;;;5007977;28;20642;-55
2021/10/06 07:00:04;;;;;;;9.88;2.20;;;;;;;;;;5023486;28;20029;-55
2021/10/06 07:02:29;;;;;;;9.60;2.40;;;;;;;;;;5013896;28;20030;-56
2021/10/06 07:04:54;;;;;;;8.10;2.15;;;;;;;;;;5016974;28;20025;-55
2021/10/06 07:07:19;;;;;;;10.73;2.20;;;;;;;;;;5016988;28;20068;-55
2021/10/06 07:09:48;;;;;;;7.72;2.05;;;;;;;;;;5018989;28;20141;-54
2021/10/06 07:12:14;;;;;;;6.38;1.92;;;;;;;;;;5020955;28;20061;-54
2021/10/06 07:14:39;;;;;;;5.05;2.10;;;;;;;;;;5021178;28;20029;-56
2021/10/06 07:17:04;;;;;;;7.95;2.35;;;;;;;;;;5023833;28;20052;-54
2021/10/06 07:19:30;;;;;;;9.38;2.13;;;;;;;;;;5016770;28;20324;-56
2021/10/06 07:21:55;;;;;;;8.75;2.20;;;;;;;;;;5014688;28;20137;-56
2021/10/06 07:24:20;;;;;;;10.85;2.15;;;;;;;;;;5019230;28;20010;-55
2021/10/06 07:26:45;;;;;;;10.30;2.70;;;;;;;;;;5009386;28;20042;-55
2021/10/06 07:29:11;;;;;;;8.75;2.30;;;;;;;;;;5009507;28;20026;-56
2021/10/06 07:31:36;;;;;;;6.53;2.10;;;;;;;;;;5006262;28;20045;-56
2021/10/06 07:34:02;;;;;;;5.60;1.95;;;;;;;;;;5023375;28;20148;-59
2021/10/06 07:36:27;;;;;;;9.00;2.03;;;;;;;;;;5021829;28;20066;-56
2021/10/06 07:38:53;;;;;;;6.30;2.00;;;;;;;;;;5015260;28;20021;-55
2021/10/06 07:41:18;;;;;;;7.45;2.10;;;;;;;;;;5020204;28;20037;-54
2021/10/06 07:43:43;;;;;;;4.93;1.85;;;;;;;;;;5025621;28;20123;-55
2021/10/06 07:46:08;;;;;;;7.50;1.95;;;;;;;;;;5011924;28;20383;-55
2021/10/06 07:48:34;;;;;;;7.18;1.80;;;;;;;;;;5014823;28;20033;-57
2021/10/06 07:50:59;;;;;;;8.50;1.90;;;;;;;;;;5031161;28;20646;-54
2021/10/06 07:53:24;;;;;;;5.30;1.75;;;;;;;;;;5009671;28;20029;-54
2021/10/06 07:55:50;;;;;;;6.70;2.40;;;;;;;;;;5013478;28;20033;-54
2021/10/06 07:58:15;;;;;;;8.15;2.00;;;;;;;;;;5014991;28;20017;-55
2021/10/06 08:00:40;;;;;;;7.53;2.00;;;;;;;;;;5019566;28;20037;-55
2021/10/06 08:03:05;;;;;;;5.25;1.77;;;;;;;;;;5007488;28;20057;-55
2021/10/06 08:05:31;;;;;;;8.35;2.00;;;;;;;;;;5013229;28;20278;-54
2021/10/06 08:07:56;;;;;;;8.10;1.98;;;;;;;;;;5019868;28;20095;-56
2021/10/06 08:10:21;;;;;;;6.93;2.00;;;;;;;;;;5013701;28;20530;-55
2021/10/06 08:12:46;;;;;;;6.82;2.00;;;;;;;;;;5013259;28;20052;-55
2021/10/06 08:15:11;;;;;;;7.18;2.33;;;;;;;;;;5014898;28;20053;-55
2021/10/06 08:17:37;;;;;;;4.75;1.83;;;;;;;;;;5007256;28;20029;-55
2021/10/06 08:20:02;;;;;;;8.02;1.95;;;;;;;;;;5012976;28;20022;-55
2021/10/06 08:22:28;;;;;;;5.80;1.83;;;;;;;;;;5017714;28;20017;-55
2021/10/06 08:24:53;;;;;;;7.25;2.00;;;;;;;;;;5017640;28;20022;-54
2021/10/06 08:27:18;;;;;;;8.00;2.13;;;;;;;;;;5019586;28;20564;-54
2021/10/06 08:29:43;;;;;;;8.60;2.20;;;;;;;;;;5019204;28;20013;-55
2021/10/06 08:32:08;;;;;;;6.32;2.00;;;;;;;;;;5026034;28;20033;-54
2021/10/06 08:34:34;;;;;;;8.52;2.10;;;;;;;;;;5013307;28;20053;-54
2021/10/06 08:36:59;;;;;;;9.60;1.90;;;;;;;;;;5015289;28;20158;-55
2021/10/06 08:39:25;;;;;;;9.55;1.90;;;;;;;;;;5019039;28;20444;-55
2021/10/06 08:41:50;;;;;;;9.68;2.33;;;;;;;;;;5018795;28;20099;-55
2021/10/06 08:44:15;;;;;;;9.88;2.08;;;;;;;;;;5008374;28;20030;-54
2021/10/06 08:46:41;;;;;;;9.40;2.38;;;;;;;;;;5016628;28;20041;-54
2021/10/06 08:49:06;;;;;;;8.85;2.75;;;;;;;;;;5017332;28;20029;-54
2021/10/06 08:51:31;;;;;;;11.02;2.40;;;;;;;;;;5007864;28;20738;-54
2021/10/06 08:53:56;;;;;;;10.82;2.40;;;;;;;;;;5017495;28;20044;-53
2021/10/06 08:56:22;;;;;;;6.90;2.10;;;;;;;;;;5016967;28;20079;-53
2021/10/06 08:58:48;;;;;;;7.78;2.00;;;;;;;;;;5018299;28;20036;-54
2021/10/06 09:01:22;;;;;;;7.78;2.03;;;;;;;;;;5011359;28;20065;-54
2021/10/06 09:03:52;;;;;;;7.38;2.40;;;;;;;;;;5006833;28;20080;-55
2021/10/06 09:06:17;;;;;;;7.55;2.30;;;;;;;;;;5012308;28;20033;-54
2021/10/06 09:08:46;;;;;;;8.35;2.28;;;;;;;;;;5012567;28;20526;-54
2021/10/06 09:11:11;;;;;;;6.47;2.58;;;;;;;;;;5015056;28;20053;-54
2021/10/06 09:13:37;;;;;;;5.53;1.90;;;;;;;;;;5017003;28;20021;-54
2021/10/06 09:16:02;;;;;;;11.55;2.35;;;;;;;;;;5006710;28;20477;-55
2021/10/06 09:18:28;;;;;;;5.30;2.00;;;;;;;;;;5009149;28;20058;-54
2021/10/06 09:20:53;;;;;;;12.68;2.33;;;;;;;;;;5009419;28;20042;-55
2021/10/06 09:23:19;;;;;;;10.05;2.20;;;;;;;;;;5028675;28;20142;-53
2021/10/06 09:25:47;;;;;;;6.85;1.90;;;;;;;;;;5003828;28;20053;-55
2021/10/06 09:28:19;;;;;;;8.15;2.25;;;;;;;;;;5009979;28;20449;-54
2021/10/06 09:30:44;;;;;;;7.70;2.17;;;;;;;;;;5005900;28;20062;-55
2021/10/06 09:33:09;;;;;;;9.82;2.53;;;;;;;;;;5010926;28;20626;-55
2021/10/06 09:35:35;;;;;;;9.88;2.35;;;;;;;;;;5006011;28;20113;-54
2021/10/06 09:38:00;;;;;;;10.02;2.40;;;;;;;;;;5005010;28;20117;-55
2021/10/06 09:40:26;;;;;;;10.45;2.22;;;;;;;;;;5009417;28;20241;-53
2021/10/06 09:42:53;;;;;;;8.02;2.17;;;;;;;;;;5015288;28;20464;-54
2021/10/06 09:45:25;;;;;;;7.88;2.10;;;;;;;;;;5018401;28;20526;-55
2021/10/06 09:47:59;;;;;;;8.10;2.20;;;;;;;;;;5010988;28;20049;-54
2021/10/06 09:50:25;;;;;;;6.35;2.13;;;;;;;;;;5017867;28;20124;-55
2021/10/06 09:52:50;;;;;;;10.95;2.53;;;;;;;;;;5020176;28;20113;-54
2021/10/06 09:55:15;;;;;;;6.53;2.05;;;;;;;;;;5027622;28;20030;-53
2021/10/06 09:57:41;;;;;;;13.93;2.63;;;;;;;;;;5020350;28;20106;-53
2021/10/06 10:00:07;;;;;;;4.30;1.92;;;;;;;;;;5013304;28;20046;-52
2021/10/06 10:02:33;;;;;;;5.18;2.00;;;;;;;;;;5010541;28;20044;-54
2021/10/06 10:04:58;;;;;;;5.47;2.03;;;;;;;;;;5009602;28;20029;-54
2021/10/06 10:07:24;;;;;;;7.50;2.05;;;;;;;;;;5014519;28;20041;-54
2021/10/06 10:09:49;;;;;;;5.85;1.90;;;;;;;;;;5020144;28;20679;-54
2021/10/06 10:12:18;;;;;;;7.68;2.30;;;;;;;;;;5016545;28;20050;-54
2021/10/06 10:14:44;;;;;;;10.25;2.42;;;;;;;;;;5020827;28;20618;-54
2021/10/06 10:17:09;;;;;;;11.35;2.10;;;;;;;;;;5014780;28;20143;-52
2021/10/06 10:19:34;;;;;;;8.40;2.10;;;;;;;;;;5014924;28;20464;-53
2021/10/06 10:22:01;;;;;;;9.80;2.03;;;;;;;;;;5025538;28;20073;-53
2021/10/06 10:24:27;;;;;;;6.28;2.20;;;;;;;;;;5024821;28;20021;-55
2021/10/06 10:27:05;;;;;;;5.05;1.88;;;;;;;;;;5021570;28;20044;-55
2021/10/06 10:29:34;;;;;;;6.82;1.80;;;;;;;;;;5023049;28;20483;-55
2021/10/06 10:32:09;;;;;;;8.50;2.17;;;;;;;;;;5015169;28;20065;-55
2021/10/06 10:34:53;;;;;;;5.18;1.80;;;;;;;;;;5014851;28;20033;-54
2021/10/06 10:37:18;;;;;;;6.80;1.90;;;;;;;;;;5007814;28;20463;-54
2021/10/06 10:39:45;;;;;;;3.60;1.90;;;;;;;;;;5022575;28;20132;-54
2021/10/06 10:42:11;;;;;;;5.57;1.75;;;;;;;;;;5024742;28;20048;-54
2021/10/06 10:44:41;;;;;;;7.72;2.15;;;;;;;;;;5020765;28;20025;-53
2021/10/06 10:47:06;;;;;;;4.32;1.75;;;;;;;;;;5019457;28;20188;-56
2021/10/06 10:49:47;;;;;;;7.28;1.95;;;;;;;;;;5014193;28;20116;-54
2021/10/06 10:52:13;;;;;;;5.30;1.77;;;;;;;;;;5009128;28;20132;-54
2021/10/06 10:54:40;;;;;;;8.43;1.88;;;;;;;;;;5009048;28;20169;-54
2021/10/06 10:57:06;;;;;;;6.68;2.35;;;;;;;;;;5027223;28;20052;-54
2021/10/06 10:59:39;;;;;;;7.45;1.90;;;;;;;;;;5027002;28;20485;-53
2021/10/06 11:02:07;;;;;;;4.60;1.80;;;;;;;;;;5012603;28;20117;-54
2021/10/06 11:04:34;;;;;;;4.85;1.70;;;;;;;;;;5029408;28;20029;-52
2021/10/06 11:07:19;;;;;;;6.88;1.98;;;;;;;;;;5014420;28;20026;-52
2021/10/06 11:09:48;;;;;;;4.35;1.58;;;;;;;;;;5015962;28;20024;-55
2021/10/06 11:12:14;;;;;;;5.03;1.98;;;;;;;;;;5009132;28;20153;-54
2021/10/06 11:14:40;;;;;;;3.92;1.52;;;;;;;;;;5009667;28;20109;-54
2021/10/06 11:17:23;;;;;;;6.22;1.40;;;;;;;;;;5017001;28;20125;-53
2021/10/06 11:19:53;;;;;;;4.78;1.70;;;;;;;;;;5022626;28;20026;-54
2021/10/06 11:22:21;;;;;;;2.95;1.30;;;;;;;;;;5019161;28;20492;-53
2021/10/06 11:24:47;;;;;;;3.13;1.27;;;;;;;;;;5012598;28;20405;-53
2021/10/06 11:27:12;;;;;;;4.88;1.70;;;;;;;;;;5012246;28;20033;-53
2021/10/06 11:29:40;;;;;;;4.85;1.40;;;;;;;;;;5022772;28;20025;-53
2021/10/06 11:32:06;;;;;;;7.03;2.25;;;;;;;;;;5013897;28;20033;-53
2021/10/06 11:34:31;;;;;;;4.82;1.60;;;;;;;;;;5010611;28;20080;-52
2021/10/06 11:36:56;;;;;;;4.15;1.48;;;;;;;;;;5014024;28;20585;-54
2021/10/06 11:39:22;;;;;;;2.88;1.30;;;;;;;;;;5024483;28;20025;-54
2021/10/06 11:41:48;;;;;;;6.75;1.67;;;;;;;;;;5018937;28;20411;-53
2021/10/06 11:44:16;;;;;;;4.07;1.60;;;;;;;;;;5009955;28;20037;-54
2021/10/06 11:46:41;;;;;;;2.25;1.50;;;;;;;;;;5009275;28;20102;-55
2021/10/06 11:49:07;;;;;;;4.78;1.50;;;;;;;;;;5010562;28;20045;-54
2021/10/06 11:51:53;;;;;;;3.92;1.63;;;;;;;;;;5012964;28;20045;-53
2021/10/06 11:54:21;;;;;;;5.88;1.60;;;;;;;;;;5009749;28;20018;-55
2021/10/06 11:56:50;;;;;;;4.28;1.70;;;;;;;;;;5012586;28;20097;-52
2021/10/06 11:59:16;;;;;;;4.30;1.60;;;;;;;;;;5018263;28;20028;-55
2021/10/06 12:01:49;;;;;;;4.88;1.50;;;;;;;;;;5006961;28;20046;-54
2021/10/06 12:04:15;;;;;;;4.80;1.40;;;;;;;;;;5015039;28;20029;-53
2021/10/06 12:06:41;;;;;;;6.55;1.30;;;;;;;;;;5017215;28;20041;-54
2021/10/06 12:09:09;;;;;;;3.97;1.00;;;;;;;;;;5015674;28;20036;-53
2021/10/06 12:11:35;;;;;;;1.25;0.98;;;;;;;;;;5012285;28;20258;-54
2021/10/06 12:14:14;;;;;;;2.28;0.93;;;;;;;;;;5015709;28;20495;-53
2021/10/06 12:16:40;;;;;;;1.77;1.10;;;;;;;;;;5014684;28;20056;-54
2021/10/06 12:19:07;;;;;;;1.95;0.95;;;;;;;;;;5013504;28;20054;-53
2021/10/06 12:21:32;;;;;;;3.88;1.17;;;;;;;;;;5021038;28;20030;-52
2021/10/06 12:24:17;;;;;;;2.08;0.90;;;;;;;;;;5023817;28;20713;-55
2021/10/06 12:26:42;;;;;;;3.00;1.15;;;;;;;;;;5015142;28;20361;-54
2021/10/06 12:29:07;;;;;;;1.52;1.20;;;;;;;;;;5013871;28;20532;-54
2021/10/06 12:31:33;;;;;;;2.45;1.20;;;;;;;;;;5013070;28;20030;-54
2021/10/06 12:34:24;;;;;;;1.92;1.15;;;;;;;;;;5021896;28;20033;-53
2021/10/06 12:36:49;;;;;;;2.72;1.02;;;;;;;;;;5018980;28;20085;-52
2021/10/06 12:39:16;;;;;;;2.00;1.17;;;;;;;;;;5010142;28;20025;-53
2021/10/06 12:41:42;;;;;;;1.52;1.00;;;;;;;;;;5012075;28;20042;-55
2021/10/06 12:44:14;;;;;;;2.42;1.15;;;;;;;;;;5007361;28;20029;-53
2021/10/06 12:46:40;;;;;;;1.35;1.00;;;;;;;;;;5009389;28;20037;-54
2021/10/06 12:49:08;;;;;;;2.72;1.10;;;;;;;;;;5011892;28;20384;-54
2021/10/06 12:51:34;;;;;;;3.10;1.10;;;;;;;;;;5013492;28;20038;-53
2021/10/06 12:54:05;;;;;;;3.65;1.08;;;;;;;;;;5010352;28;20091;-55
2021/10/06 12:56:37;;;;;;;3.42;1.27;;;;;;;;;;5019399;28;20562;-53
2021/10/06 12:59:03;;;;;;;1.25;0.93;;;;;;;;;;5016917;28;20026;-54
2021/10/06 13:01:31;;;;;;;1.35;1.00;;;;;;;;;;5014477;28;20033;-54
2021/10/06 13:03:56;;;;;;;2.95;1.30;;;;;;;;;;5014436;28;20048;-54
2021/10/06 13:06:21;;;;;;;2.22;1.20;;;;;;;;;;5019401;28;20038;-54
2021/10/06 13:08:54;;;;;;;1.92;1.15;;;;;;;;;;5010034;28;20527;-54
2021/10/06 13:11:19;;;;;;;0.90;0.90;;;;;;;;;;5014368;28;20049;-53
2021/10/06 13:13:44;;;;;;;2.35;1.13;;;;;;;;;;5011305;28;20570;-54
2021/10/06 13:16:10;;;;;;;1.40;0.90;;;;;;;;;;5021463;28;20084;-53
2021/10/06 13:18:35;;;;;;;2.15;1.10;;;;;;;;;;5020837;28;20040;-54
2021/10/06 13:21:00;;;;;;;2.60;1.15;;;;;;;;;;5013761;28;20037;-54
2021/10/06 13:23:26;;;;;;;3.13;1.05;;;;;;;;;;5016004;28;20112;-53
2021/10/06 13:25:51;;;;;;;1.45;1.00;;;;;;;;;;5018205;28;20415;-55
2021/10/06 13:28:16;;;;;;;3.53;1.15;;;;;;;;;;5017128;28;20048;-54
2021/10/06 13:30:43;;;;;;;2.58;0.95;;;;;;;;;;5011115;28;20042;-53
2021/10/06 13:33:09;;;;;;;1.40;1.00;;;;;;;;;;5008059;28;20080;-54
2021/10/06 13:35:34;;;;;;;2.22;0.90;;;;;;;;;;5007665;28;20109;-53
2021/10/06 13:37:59;;;;;;;3.30;1.00;;;;;;;;;;5011553;28;20049;-52
2021/10/06 13:40:24;;;;;;;2.78;1.05;;;;;;;;;;5013813;28;20037;-52
2021/10/06 13:42:49;;;;;;;1.92;0.98;;;;;;;;;;5010662;28;20030;-54
2021/10/06 13:45:17;;;;;;;3.03;1.10;;;;;;;;;;5014066;28;20029;-53
2021/10/06 13:47:42;;;;;;;1.02;0.68;;;;;;;;;;5019880;28;20033;-54
2021/10/06 13:50:08;;;;;;;0.98;0.93;;;;;;;;;;5020972;28;20028;-53
2021/10/06 13:52:33;;;;;;;7.78;1.30;;;;;;;;;;5016297;28;20084;-54
2021/10/06 13:54:58;;;;;;;2.28;0.88;;;;;;;;;;5014526;28;20184;-54
2021/10/06 13:57:23;;;;;;;2.20;0.90;;;;;;;;;;5014810;28;20154;-52
2021/10/06 13:59:49;;;;;;;2.97;1.05;;;;;;;;;;5024037;28;20153;-53
2021/10/06 14:02:14;;;;;;;2.63;1.00;;;;;;;;;;5009683;28;20395;-55
2021/10/06 14:04:39;;;;;;;1.08;0.80;;;;;;;;;;5016071;28;20037;-54
2021/10/06 14:07:04;;;;;;;1.90;1.10;;;;;;;;;;5022418;28;20055;-54
2021/10/06 14:09:29;;;;;;;2.40;0.93;;;;;;;;;;5018626;28;20013;-54
2021/10/06 14:11:55;;;;;;;1.33;0.90;;;;;;;;;;5017441;28;20060;-53
2021/10/06 14:14:20;;;;;;;1.95;0.90;;;;;;;;;;5014597;28;20034;-54
2021/10/06 14:16:45;;;;;;;1.52;1.00;;;;;;;;;;5008287;28;20173;-54
2021/10/06 14:19:10;;;;;;;1.63;0.90;;;;;;;;;;5016001;28;20088;-55
2021/10/06 14:21:35;;;;;;;4.10;1.15;;;;;;;;;;5013233;28;20072;-53
2021/10/06 14:24:01;;;;;;;2.90;0.90;;;;;;;;;;5020693;28;20026;-53
2021/10/06 14:26:26;;;;;;;2.70;0.88;;;;;;;;;;5020356;28;20041;-54
2021/10/06 14:28:51;;;;;;;2.80;1.17;;;;;;;;;;5019091;28;20031;-54
2021/10/06 14:31:16;;;;;;;3.58;1.02;;;;;;;;;;5019451;28;20116;-55
2021/10/06 14:33:44;;;;;;;2.92;1.00;;;;;;;;;;5021777;28;20105;-53